Salem, South Dakota
Current Conditions -  °F | °C
As of 4:10 AM on Thursday 29 Jan 2015 (Local Time) from KMDS Reporting Station
Overcast Overcast  
Wind Chill: -10°   Ceiling: 1600
Heat Index: -2°   Visibility: 10mi
Dew Point: -2°   Wind: 26mph
Humidity: 100%   Direction: 340°NNW
Pressure: 30.16"   Gusts: 36mph
Location:  43.72°N, 97.39°W
Report Text: KMDS 291010Z AUTO 34023G31KT 10SM OVC016 M02/M02 A3016 RMK AO2
Loading
Personal Weather Stations






























Interactive Weather Map New forecast layout! Learn more

10-Day Weather Forecast

Advertisements
Track Severe Weather on mobile